Time;durP1;ratioP1;P1;durP2;ratioP2;P2;SDS_P1;SDS_P2;PMS_P1;PMS_P2;Temp;Humidity;BMP_temperature;BMP_pressure;BME280_temperature;BME280_humidity;BME280_pressure;Samples;Min_cycle;Max_cycle;Signal;HPM_P1;HPM_P2
2022/05/10 00:02:01;;;;;;;;;;;;;;;;;;;;;
2022/05/10 00:04:35;;;;;;;8.50;4.97;;;15.60;85.10;;;;;;4939375;29;20032;-90
2022/05/10 00:07:04;;;;;;;5.78;4.60;;;15.50;85.10;;;;;;4907119;29;20043;-91
2022/05/10 00:09:39;;;;;;;6.60;4.97;;;15.50;85.20;;;;;;4922597;29;20028;-90
2022/05/10 00:12:16;;;;;;;8.98;5.18;;;15.50;85.30;;;;;;4923521;29;20111;-89
2022/05/10 00:14:52;;;;;;;7.35;5.60;;;15.40;85.40;;;;;;4924500;29;20036;-91
2022/05/10 00:17:48;;;;;;;6.05;4.88;;;15.40;85.60;;;;;;4922901;29;20039;-91
2022/05/10 00:20:32;;;;;;;9.00;5.20;;;15.40;85.80;;;;;;4942010;29;20084;-90
2022/05/10 00:23:07;;;;;;;8.85;5.07;;;15.40;85.90;;;;;;4925416;29;20035;-90
2022/05/10 00:25:41;;;;;;;6.75;5.07;;;15.30;86.00;;;;;;4926089;29;20037;-89
2022/05/10 00:28:24;;;;;;;6.05;4.93;;;15.30;86.10;;;;;;4925462;29;20031;-91
2022/05/10 00:31:03;;;;;;;8.27;4.85;;;15.20;86.20;;;;;;4926539;29;20042;-91
2022/05/10 00:33:33;;;;;;;7.55;5.10;;;15.20;86.20;;;;;;4911252;29;20102;-90
2022/05/10 00:36:06;;;;;;;7.55;5.53;;;15.20;86.30;;;;;;4943964;29;20106;-90
2022/05/10 00:38:37;;;;;;;9.07;5.63;;;15.20;86.50;;;;;;4934934;29;20480;-90
2022/05/10 00:41:40;;;;;;;8.05;5.97;;;15.20;86.70;;;;;;4935984;29;20036;-92
2022/05/10 00:44:44;;;;;;;9.23;6.13;;;15.10;86.80;;;;;;4942119;28;20024;-90
2022/05/10 00:47:23;;;;;;;8.13;6.50;;;15.10;86.90;;;;;;4960907;28;20028;-89
2022/05/10 00:50:30;;;;;;;8.07;6.63;;;15.10;87.00;;;;;;4944735;28;20020;-91
2022/05/10 00:53:33;;;;;;;;;;;;;;;;;;;;;
2022/05/10 00:56:15;;;;;;;8.93;6.68;;;15.00;87.20;;;;;;4961052;28;20023;-90
2022/05/10 00:58:54;;;;;;;;;;;15.00;87.40;;;;;;4945701;28;20051;-90
2022/05/10 01:01:34;;;;;;;9.65;7.05;;;14.90;87.30;;;;;;4940030;28;19930;-89
2022/05/10 01:04:11;;;;;;;9.50;6.90;;;14.90;87.60;;;;;;4934117;29;20026;-90
2022/05/10 01:06:57;;;;;;;8.38;7.03;;;14.80;87.70;;;;;;4934271;29;20067;-90
2022/05/10 01:09:57;;;;;;;;;;;;;;;;;;;;;
2022/05/10 01:12:50;;;;;;;8.10;6.40;;;14.80;88.00;;;;;;4948218;29;20088;-90
2022/05/10 01:15:29;;;;;;;;;;;;;;;;;;;;;
2022/05/10 01:18:05;;;;;;;10.25;6.75;;;14.70;88.40;;;;;;4947053;29;20092;-90
2022/05/10 01:20:47;;;;;;;9.88;6.82;;;14.70;88.50;;;;;;4940542;29;20027;-89
2022/05/10 01:23:50;;;;;;;9.30;8.10;;;14.70;88.70;;;;;;4942203;29;20027;-91
2022/05/10 01:26:27;;;;;;;8.25;7.45;;;14.60;88.80;;;;;;4941364;29;20027;-91
2022/05/10 01:29:22;;;;;;;10.07;7.50;;;14.60;88.90;;;;;;4941189;29;20038;-91
2022/05/10 01:35:02;;;;;;;11.40;7.90;;;14.60;89.30;;;;;;4957891;29;20102;-90
2022/05/10 01:37:47;;;;;;;9.38;8.38;;;14.60;89.40;;;;;;4940710;29;20119;-92
2022/05/10 01:40:44;;;;;;;9.88;8.02;;;14.60;89.60;;;;;;4940304;29;20024;-90
2022/05/10 01:43:21;;;;;;;8.93;8.02;;;14.60;89.80;;;;;;4903278;29;20429;-90
2022/05/10 01:45:57;;;;;;;9.60;7.95;;;14.50;89.70;;;;;;4906422;29;20087;-90
2022/05/10 01:48:29;;;;;;;9.95;8.27;;;14.50;89.90;;;;;;4906802;29;20045;-90
2022/05/10 01:51:56;;;;;;;10.50;8.57;;;14.50;89.90;;;;;;4912282;29;20353;-91
2022/05/10 01:54:40;;;;;;;10.18;8.25;;;14.50;90.00;;;;;;4910672;29;20059;-89
2022/05/10 01:57:21;;;;;;;9.73;7.90;;;14.50;90.10;;;;;;4906229;29;20449;-90
2022/05/10 02:00:06;;;;;;;11.02;9.15;;;14.50;90.00;;;;;;4905830;29;20605;-90
2022/05/10 02:02:38;;;;;;;12.07;10.07;;;14.50;90.10;;;;;;4920477;29;20035;-91
2022/05/10 02:08:46;;;;;;;10.68;9.25;;;14.40;90.30;;;;;;4929078;29;20361;-91
2022/05/10 02:11:21;;;;;;;11.25;10.10;;;14.40;90.30;;;;;;4925121;29;20031;-90
2022/05/10 02:14:12;;;;;;;11.20;9.43;;;14.40;90.30;;;;;;4906194;29;20079;-91
2022/05/10 02:16:47;;;;;;;13.15;10.63;;;14.40;90.40;;;;;;4905685;29;20035;-91
2022/05/10 02:19:37;;;;;;;11.80;10.60;;;14.40;90.40;;;;;;4906082;29;20024;-89
2022/05/10 02:22:19;;;;;;;10.43;9.30;;;14.30;90.40;;;;;;4908457;29;20137;-90
2022/05/10 02:25:02;;;;;;;10.90;9.55;;;14.40;90.50;;;;;;4925689;29;20062;-91
2022/05/10 02:27:48;;;;;;;12.95;10.48;;;14.30;90.50;;;;;;4911058;29;20476;-91
2022/05/10 02:30:46;;;;;;;;;;;;;;;;;;;;;
2022/05/10 02:33:25;;;;;;;;;;;;;;;;;;;;;
2022/05/10 02:36:11;;;;;;;11.55;10.32;;;14.20;90.60;;;;;;4966037;28;20038;-90
2022/05/10 02:38:45;;;;;;;10.82;9.65;;;14.20;90.70;;;;;;4951385;28;20012;-89
2022/05/10 02:41:29;;;;;;;17.13;10.32;;;14.20;90.70;;;;;;4966240;28;20015;-90
2022/05/10 02:44:04;;;;;;;11.95;10.73;;;14.20;90.80;;;;;;4953503;28;20040;-90
2022/05/10 02:46:32;;;;;;;13.20;10.52;;;14.20;90.80;;;;;;4925274;29;20460;-91
2022/05/10 02:49:10;;;;;;;12.50;11.23;;;14.20;90.80;;;;;;4924812;29;20112;-91
2022/05/10 02:51:58;;;;;;;;;;;;;;;;;;;;;
2022/05/10 02:54:45;;;;;;;11.80;10.60;;;14.20;91.00;;;;;;4942107;29;20044;-92
2022/05/10 02:57:29;;;;;;;12.07;10.85;;;14.20;91.00;;;;;;4940910;29;20051;-91
2022/05/10 03:00:09;;;;;;;12.23;11.00;;;14.20;91.10;;;;;;4924090;29;20047;-90
2022/05/10 03:06:11;;;;;;;;;;;;;;;;;;;;;
2022/05/10 03:08:49;;;;;;;13.67;11.63;;;14.20;91.30;;;;;;4974263;29;20047;-90
2022/05/10 03:11:33;;;;;;;12.23;10.77;;;14.20;91.30;;;;;;4938893;29;20031;-90
2022/05/10 03:14:04;;;;;;;12.57;11.27;;;14.20;91.30;;;;;;4945170;29;20034;-91
2022/05/10 03:16:35;;;;;;;11.85;10.70;;;14.20;91.30;;;;;;4928634;29;20034;-90
2022/05/10 03:19:04;;;;;;;13.40;10.73;;;14.20;91.30;;;;;;4943437;29;20035;-91
2022/05/10 03:21:30;;;;;;;12.02;10.77;;;14.30;91.40;;;;;;4935087;29;20035;-89
2022/05/10 03:24:04;;;;;;;12.75;11.45;;;14.30;91.40;;;;;;4946960;29;20031;-91
2022/05/10 03:26:47;;;;;;;12.35;11.05;;;14.30;91.40;;;;;;4944657;29;20106;-89
2022/05/10 03:29:20;;;;;;;13.30;11.82;;;14.30;91.40;;;;;;4936033;29;20020;-92
2022/05/10 03:31:51;;;;;;;14.35;11.38;;;14.30;91.40;;;;;;4923079;29;20086;-91
2022/05/10 03:37:03;;;;;;;12.75;11.50;;;14.30;91.50;;;;;;4940383;29;20042;-90
2022/05/10 03:39:40;;;;;;;13.85;11.57;;;14.30;91.60;;;;;;4923123;29;20023;-91
2022/05/10 03:42:12;;;;;;;14.15;12.68;;;14.30;91.60;;;;;;4907843;29;20034;-89
2022/05/10 03:44:53;;;;;;;;;;;;;;;;;;;;;
2022/05/10 03:47:40;;;;;;;;;;;;;;;;;;;;;
2022/05/10 03:50:24;;;;;;;15.65;12.05;;;14.30;91.70;;;;;;4945622;29;20046;-91
2022/05/10 03:52:53;;;;;;;14.95;12.50;;;14.30;91.80;;;;;;4941893;29;20118;-89
2022/05/10 03:55:24;;;;;;;13.45;12.05;;;14.30;91.80;;;;;;4941600;29;20053;-89
2022/05/10 03:57:56;;;;;;;13.65;11.65;;;14.30;91.80;;;;;;4942095;29;20019;-92
2022/05/10 04:00:38;;;;;;;14.23;12.50;;;14.30;91.90;;;;;;4939402;29;20090;-95
2022/05/10 04:03:07;;;;;;;14.50;12.70;;;14.30;92.00;;;;;;4939661;29;20077;-92
2022/05/10 04:06:08;;;;;;;13.20;11.90;;;14.30;92.00;;;;;;4942486;29;20037;-91
2022/05/10 04:09:06;;;;;;;;;;;;;;;;;;;;;
2022/05/10 04:11:45;;;;;;;13.82;12.32;;;14.30;92.00;;;;;;4945731;29;20106;-92
2022/05/10 04:14:22;;;;;;;13.93;12.23;;;14.30;92.00;;;;;;4942247;29;20423;-89
2022/05/10 04:16:57;;;;;;;14.05;12.65;;;14.30;92.00;;;;;;4928556;29;20027;-91
2022/05/10 04:19:34;;;;;;;13.55;11.90;;;14.30;92.10;;;;;;4946516;28;20018;-90
2022/05/10 04:22:27;;;;;;;14.10;12.40;;;14.30;92.10;;;;;;4949022;28;20123;-90
2022/05/10 04:25:00;;;;;;;13.93;12.43;;;14.30;92.20;;;;;;4963046;28;20055;-91
2022/05/10 04:27:52;;;;;;;14.88;13.27;;;14.30;92.20;;;;;;4952428;29;20035;-91
2022/05/10 04:30:41;;;;;;;;;;;14.40;92.30;;;;;;4946642;29;20042;-91
2022/05/10 04:33:32;;;;;;;14.65;11.98;;;14.40;92.20;;;;;;4912924;29;19911;-91
2022/05/10 04:36:22;;;;;;;;;;;;;;;;;;;;;
2022/05/10 04:39:11;;;;;;;11.93;10.52;;;14.40;92.20;;;;;;4927188;29;20115;-93
2022/05/10 04:45:03;;;;;;;14.13;12.30;;;14.50;92.20;;;;;;4916486;29;20404;-93
2022/05/10 04:48:11;;;;;;;;;;;;;;;;;;;;;
2022/05/10 04:53:59;;;;;;;14.40;11.40;;;14.70;92.20;;;;;;4935105;29;20463;-95
2022/05/10 04:56:38;;;;;;;;;;;;;;;;;;;;;
2022/05/10 04:59:14;;;;;;;;;;;;;;;;;;;;;
2022/05/10 05:01:55;;;;;;;;;;;;;;;;;;;;;
2022/05/10 05:18:04;;;;;;;;;;;;;;;;;;;;;
2022/05/10 05:20:35;;;;;;;13.50;12.07;;;15.20;91.90;;;;;;4898788;29;20035;-87
2022/05/10 05:23:08;;;;;;;13.30;11.77;;;15.30;91.80;;;;;;4882105;29;20088;-88
2022/05/10 05:25:56;;;;;;;;;;;;;;;;;;;;;
2022/05/10 05:28:44;;;;;;;13.40;11.52;;;15.40;91.70;;;;;;4916391;29;20038;-90
2022/05/10 05:31:15;;;;;;;12.73;11.43;;;15.40;91.60;;;;;;4921077;29;20548;-90
2022/05/10 05:36:43;;;;;;;;;;;;;;;;;;;;;
2022/05/10 05:39:14;;;;;;;11.95;10.55;;;15.60;91.50;;;;;;4937055;29;20031;-90
2022/05/10 05:41:57;;;;;;;13.65;12.23;;;15.60;91.40;;;;;;4905425;29;20070;-92
2022/05/10 05:51:36;;;;;;;12.73;10.95;;;15.70;91.30;;;;;;4903436;29;20048;-92
2022/05/10 05:57:50;;;;;;;;;;;;;;;;;;;;;
2022/05/10 06:10:49;;;;;;;;;;;;;;;;;;;;;
2022/05/10 06:13:52;;;;;;;;;;;;;;;;;;;;;
2022/05/10 06:20:10;;;;;;;;;;;;;;;;;;;;;
2022/05/10 06:23:03;;;;;;;;;;;;;;;;;;;;;
2022/05/10 06:33:41;;;;;;;;;;;;;;;;;;;;;
2022/05/10 06:46:51;;;;;;;;;;;;;;;;;;;;;
2022/05/10 06:53:46;;;;;;;10.75;9.38;;;17.10;90.60;;;;;;4858975;29;20092;-91
2022/05/10 06:56:42;;;;;;;11.07;9.00;;;17.30;90.70;;;;;;4862818;29;20045;-92
2022/05/10 07:12:46;;;;;;;;;;;;;;;;;;;;;
2022/05/10 07:15:30;;;;;;;11.02;8.10;;;17.90;90.40;;;;;;4805173;29;20051;-91
2022/05/10 07:25:35;;;;;;;;;;;;;;;;;;;;;
2022/05/10 07:28:34;;;;;;;;;;;;;;;;;;;;;
2022/05/10 07:31:57;;;;;;;;;;;;;;;;;;;;;
2022/05/10 07:44:51;;;;;;;12.85;9.23;;;19.10;89.50;;;;;;4873890;29;20421;-93
2022/05/10 07:51:05;;;;;;;;;;;;;;;;;;;;;
2022/05/10 07:57:45;;;;;;;;;;;;;;;;;;;;;
2022/05/10 08:01:05;;;;;;;9.57;8.57;;;19.80;88.10;;;;;;4822174;29;20046;-91
2022/05/10 08:07:39;;;;;;;11.05;8.43;;;20.00;87.70;;;;;;4845155;29;20033;-90
2022/05/10 08:10:55;;;;;;;;;;;;;;;;;;;;;
2022/05/10 08:14:14;;;;;;;9.13;7.32;;;20.20;87.00;;;;;;4884334;29;20040;-91
2022/05/10 08:17:41;;;;;;;7.50;6.73;;;20.30;86.70;;;;;;4848995;29;20061;-92
2022/05/10 08:24:29;;;;;;;;;;;;;;;;;;;;;
2022/05/10 08:27:21;;;;;;;7.38;6.43;;;20.60;85.90;;;;;;4747455;30;20048;-91
2022/05/10 08:30:52;;;;;;;;;;;;;;;;;;;;;
2022/05/10 08:34:42;;;;;;;;;;;;;;;;;;;;;
2022/05/10 08:40:59;;;;;;;;;;;;;;;;;;;;;
2022/05/10 08:47:56;;;;;;;;;;;;;;;;;;;;;
2022/05/10 08:54:07;;;;;;;;;;;;;;;;;;;;;
2022/05/10 08:57:31;;;;;;;;;;;;;;;;;;;;;
2022/05/10 09:00:28;;;;;;;;;;;;;;;;;;;;;
2022/05/10 09:04:03;;;;;;;;;;;;;;;;;;;;;
2022/05/10 09:07:20;;;;;;;;;;;;;;;;;;;;;
2022/05/10 09:10:27;;;;;;;;;;;;;;;;;;;;;
2022/05/10 09:23:34;;;;;;;4.38;3.78;;;21.40;82.60;;;;;;4823016;29;20030;-93
2022/05/10 09:27:18;;;;;;;;;;;;;;;;;;;;;
2022/05/10 09:37:57;;;;;;;;;;;;;;;;;;;;;
2022/05/10 09:40:36;;;;;;;;;;;;;;;;;;;;;
2022/05/10 09:43:37;;;;;;;;;;;;;;;;;;;;;
2022/05/10 09:50:40;;;;;;;;;;;;;;;;;;;;;
2022/05/10 09:56:37;;;;;;;;;;;;;;;;;;;;;
2022/05/10 09:59:17;;;;;;;3.22;2.85;;;22.40;79.50;;;;;;4957027;29;20027;-91
2022/05/10 10:15:58;;;;;;;6.57;3.15;;;23.00;77.60;;;;;;4958354;28;20039;-90
2022/05/10 10:18:53;;;;;;;;;;;;;;;;;;;;;
2022/05/10 10:22:10;;;;;;;;;;;;;;;;;;;;;
2022/05/10 10:29:29;;;;;;;;;;;;;;;;;;;;;
2022/05/10 10:32:33;;;;;;;;;;;;;;;;;;;;;
2022/05/10 10:36:14;;;;;;;;;;;;;;;;;;;;;
2022/05/10 10:46:37;;;;;;;;;;;;;;;;;;;;;
2022/05/10 10:53:21;;;;;;;;;;;;;;;;;;;;;
2022/05/10 11:06:58;;;;;;;;;;;;;;;;;;;;;
2022/05/10 11:10:24;;;;;;;;;;;;;;;;;;;;;
2022/05/10 11:13:58;;;;;;;;;;;;;;;;;;;;;
2022/05/10 11:17:01;;;;;;;;;;;;;;;;;;;;;
2022/05/10 11:27:47;;;;;;;;;;;;;;;;;;;;;
2022/05/10 11:34:44;;;;;;;;;;;;;;;;;;;;;
2022/05/10 11:38:00;;;;;;;;;;;;;;;;;;;;;
2022/05/10 11:48:20;;;;;;;;;;;;;;;;;;;;;
2022/05/10 11:55:41;;;;;;;;;;;;;;;;;;;;;
2022/05/10 12:13:00;;;;;;;4.18;2.90;;;24.40;67.60;;;;;;4771586;30;20048;-91
2022/05/10 12:23:13;;;;;;;;;;;;;;;;;;;;;
2022/05/10 12:29:56;;;;;;;;;;;;;;;;;;;;;
2022/05/10 12:32:57;;;;;;;4.40;3.45;;;24.50;66.70;;;;;;4734656;30;20069;-92
2022/05/10 12:39:54;;;;;;;5.18;3.50;;;24.50;66.90;;;;;;4753573;30;20040;-92
2022/05/10 12:49:58;;;;;;;;;;;;;;;;;;;;;
2022/05/10 13:21:19;;;;;;;;;;;;;;;;;;;;;
2022/05/10 13:24:26;;;;;;;7.00;3.50;;;24.40;64.90;;;;;;4740442;30;20040;-93
2022/05/10 13:27:41;;;;;;;;;;;;;;;;;;;;;
2022/05/10 13:30:50;;;;;;;3.40;2.75;;;24.40;64.60;;;;;;4873742;29;20056;-91
2022/05/10 13:37:32;;;;;;;;;;;;;;;;;;;;;
2022/05/10 13:41:00;;;;;;;;;;;;;;;;;;;;;
2022/05/10 13:48:12;;;;;;;;;;;;;;;;;;;;;
2022/05/10 14:05:00;;;;;;;;;;;;;;;;;;;;;
2022/05/10 14:08:40;;;;;;;;;;;;;;;;;;;;;
2022/05/10 14:15:26;;;;;;;;;;;;;;;;;;;;;
2022/05/10 14:25:07;;;;;;;7.10;3.30;;;24.30;66.00;;;;;;4928162;29;20051;-92
2022/05/10 14:32:03;;;;;;;;;;;;;;;;;;;;;
2022/05/10 14:35:58;;;;;;;;;;;;;;;;;;;;;
2022/05/10 14:39:12;;;;;;;;;;;;;;;;;;;;;
2022/05/10 14:46:22;;;;;;;;;;;;;;;;;;;;;
2022/05/10 14:56:23;;;;;;;7.03;4.70;;;24.10;66.90;;;;;;4787177;29;20043;-91
2022/05/10 14:59:15;;;;;;;8.38;4.38;;;24.10;67.10;;;;;;4786486;29;20093;-93
2022/05/10 15:23:27;;;;;;;;;;;;;;;;;;;;;
2022/05/10 15:27:01;;;;;;;;;;;;;;;;;;;;;
2022/05/10 15:33:52;;;;;;;6.90;4.25;;;23.40;67.90;;;;;;4713731;30;20101;-91
2022/05/10 15:36:45;;;;;;;;;;;;;;;;;;;;;
2022/05/10 15:43:44;;;;;;;5.45;3.33;;;23.20;68.10;;;;;;4785457;30;20262;-91
2022/05/10 15:46:55;;;;;;;;;;;;;;;;;;;;;
2022/05/10 15:50:03;;;;;;;;;;;;;;;;;;;;;
2022/05/10 15:53:08;;;;;;;;;;;;;;;;;;;;;
2022/05/10 15:55:57;;;;;;;4.15;3.25;;;22.80;67.80;;;;;;4874506;29;20127;-92
2022/05/10 15:59:07;;;;;;;;;;;;;;;;;;;;;
2022/05/10 16:02:18;;;;;;;4.03;2.80;;;22.70;68.00;;;;;;4943468;28;20049;-93
2022/05/10 16:05:38;;;;;;;;;;;;;;;;;;;;;
2022/05/10 16:12:40;;;;;;;4.20;2.90;;;22.50;67.70;;;;;;4901767;29;20544;-91
2022/05/10 16:15:39;;;;;;;;;;;;;;;;;;;;;
2022/05/10 16:18:57;;;;;;;2.67;2.10;;;22.20;67.00;;;;;;4934348;29;20051;-94
2022/05/10 16:21:51;;;;;;;3.80;2.00;;;22.10;66.50;;;;;;4922309;29;20538;-92
2022/05/10 16:24:30;;;;;;;3.63;1.85;;;22.00;66.10;;;;;;4922617;29;20127;-92
2022/05/10 16:30:16;;;;;;;;;;;;;;;;;;;;;
2022/05/10 16:32:45;;;;;;;3.45;1.95;;;21.90;65.60;;;;;;4947711;29;20091;-92
2022/05/10 16:35:44;;;;;;;;;;;;;;;;;;;;;
2022/05/10 16:38:18;;;;;;;2.63;1.75;;;21.80;65.60;;;;;;4949331;28;20046;-91
2022/05/10 16:40:59;;;;;;;;;;;;;;;;;;;;;
2022/05/10 16:43:50;;;;;;;4.45;1.90;;;21.70;65.50;;;;;;4961472;28;20020;-92
2022/05/10 16:47:00;;;;;;;;;;;;;;;;;;;;;
2022/05/10 16:50:11;;;;;;;;;;;;;;;;;;;;;
2022/05/10 16:52:59;;;;;;;;;;;;;;;;;;;;;
2022/05/10 16:58:53;;;;;;;3.92;1.65;;;21.40;65.50;;;;;;4920524;29;20057;-92
2022/05/10 17:01:40;;;;;;;2.00;1.40;;;21.40;65.60;;;;;;4935686;29;20031;-92
2022/05/10 17:04:39;;;;;;;;;;;;;;;;;;;;;
2022/05/10 17:07:29;;;;;;;2.95;1.65;;;21.30;65.30;;;;;;4951182;29;20097;-92
2022/05/10 17:10:34;;;;;;;2.53;1.67;;;21.30;65.50;;;;;;4927378;29;20039;-93
2022/05/10 17:16:37;;;;;;;;;;;;;;;;;;;;;
2022/05/10 17:19:24;;;;;;;;;;;;;;;;;;;;;
2022/05/10 17:22:05;;;;;;;5.07;1.92;;;21.20;65.40;;;;;;4902831;29;20127;-92
2022/05/10 17:25:09;;;;;;;3.65;1.80;;;21.20;65.30;;;;;;4902692;29;20040;-92
2022/05/10 17:34:17;;;;;;;4.32;1.38;;;21.00;65.30;;;;;;4899784;29;20110;-92
2022/05/10 17:37:14;;;;;;;3.95;1.60;;;21.00;65.10;;;;;;4902825;29;20476;-92
2022/05/10 17:40:29;;;;;;;2.58;1.40;;;20.90;65.10;;;;;;4900251;29;20056;-93
2022/05/10 17:43:22;;;;;;;2.13;1.40;;;20.90;65.00;;;;;;4900734;29;20544;-93
2022/05/10 17:46:00;;;;;;;4.18;1.70;;;20.80;65.00;;;;;;4925244;29;20032;-93
2022/05/10 17:55:23;;;;;;;2.85;1.50;;;20.80;65.30;;;;;;4942164;29;20091;-93
2022/05/10 17:58:12;;;;;;;;;;;;;;;;;;;;;
2022/05/10 18:01:00;;;;;;;3.50;1.52;;;20.70;65.30;;;;;;4935307;29;20072;-91
2022/05/10 18:03:59;;;;;;;3.85;1.58;;;20.70;65.40;;;;;;4924662;29;20028;-92
2022/05/10 18:06:42;;;;;;;2.92;1.38;;;20.70;65.60;;;;;;4941202;29;20048;-91
2022/05/10 18:09:37;;;;;;;2.20;1.38;;;20.60;65.70;;;;;;4940170;28;20083;-92
2022/05/10 18:12:18;;;;;;;5.30;1.95;;;20.60;65.90;;;;;;4951596;28;20028;-93
2022/05/10 18:15:33;;;;;;;;;;;;;;;;;;;;;
2022/05/10 18:18:24;;;;;;;;;;;;;;;;;;;;;
2022/05/10 18:21:14;;;;;;;3.35;1.77;;;20.50;66.30;;;;;;4978177;28;20117;-90
2022/05/10 18:24:05;;;;;;;;;;;;;;;;;;;;;
2022/05/10 18:27:31;;;;;;;;;;;;;;;;;;;;;
2022/05/10 18:30:38;;;;;;;3.83;1.77;;;20.40;66.70;;;;;;4943078;29;20106;-92
2022/05/10 18:36:56;;;;;;;2.95;1.80;;;20.30;67.10;;;;;;4926708;29;20532;-93
2022/05/10 18:43:16;;;;;;;;;;;;;;;;;;;;;
2022/05/10 18:53:33;;;;;;;;;;;;;;;;;;;;;
2022/05/10 18:56:04;;;;;;;3.40;1.73;;;20.00;68.40;;;;;;4875024;29;20066;-94
2022/05/10 19:16:16;;;;;;;;;;;;;;;;;;;;;
2022/05/10 19:18:52;;;;;;;2.55;1.65;;;19.60;70.00;;;;;;4893132;29;20107;-91
2022/05/10 19:21:57;;;;;;;4.68;1.60;;;19.60;70.20;;;;;;4930884;29;20043;-91
2022/05/10 19:24:56;;;;;;;;;;;;;;;;;;;;;
2022/05/10 19:28:01;;;;;;;5.85;1.58;;;19.40;70.70;;;;;;4953557;29;20039;-93
2022/05/10 19:30:43;;;;;;;2.97;1.95;;;19.40;71.20;;;;;;4928030;29;20039;-93
2022/05/10 19:33:25;;;;;;;;;;;;;;;;;;;;;
2022/05/10 19:36:42;;;;;;;;;;;;;;;;;;;;;
2022/05/10 19:41:53;;;;;;;4.05;2.00;;;19.10;71.80;;;;;;4910669;29;20100;-89
2022/05/10 19:44:52;;;;;;;4.80;1.77;;;19.10;71.80;;;;;;4909159;29;20033;-92
2022/05/10 19:47:39;;;;;;;3.25;1.67;;;19.00;72.80;;;;;;4879243;29;20045;-90
2022/05/10 19:51:03;;;;;;;;;;;;;;;;;;;;;
2022/05/10 19:53:54;;;;;;;3.20;1.70;;;18.90;73.10;;;;;;4904901;29;20039;-89
2022/05/10 19:56:59;;;;;;;8.65;2.28;;;18.90;73.40;;;;;;4903137;29;20037;-93
2022/05/10 19:59:55;;;;;;;5.20;1.50;;;18.90;73.20;;;;;;4858145;29;20106;-92
2022/05/10 20:06:07;;;;;;;4.07;1.85;;;18.80;72.90;;;;;;4840752;29;20052;-91
2022/05/10 20:14:27;;;;;;;4.63;1.90;;;18.70;73.70;;;;;;4850995;29;20030;-91
2022/05/10 20:17:20;;;;;;;2.83;1.60;;;18.70;74.20;;;;;;4926527;29;20039;-92
2022/05/10 20:19:51;;;;;;;2.58;1.58;;;18.60;74.20;;;;;;4920737;29;20138;-91
2022/05/10 20:22:39;;;;;;;;;;;18.60;74.20;;;;;;4915828;29;20027;-91
2022/05/10 20:25:29;;;;;;;4.32;1.85;;;18.60;74.10;;;;;;4945485;29;19957;-90
2022/05/10 20:31:29;;;;;;;2.60;1.70;;;18.60;75.10;;;;;;4922302;29;20035;-91
2022/05/10 20:34:19;;;;;;;2.72;1.50;;;18.60;74.40;;;;;;4907603;29;20032;-91
2022/05/10 20:36:54;;;;;;;2.15;1.27;;;18.60;74.30;;;;;;4931454;29;20040;-91
2022/05/10 20:42:47;;;;;;;1.90;1.15;;;18.60;74.50;;;;;;4902082;29;20037;-90
2022/05/10 20:45:44;;;;;;;3.08;1.13;;;18.50;74.40;;;;;;4917667;29;20135;-92
2022/05/10 20:48:29;;;;;;;;;;;;;;;;;;;;;
2022/05/10 20:56:56;;;;;;;2.92;1.00;;;18.50;74.80;;;;;;4942523;29;20035;-92
2022/05/10 20:59:25;;;;;;;3.13;0.93;;;18.50;75.00;;;;;;4906012;29;20122;-90
2022/05/10 21:02:21;;;;;;;1.77;1.00;;;18.50;75.20;;;;;;4923714;29;20388;-90
2022/05/10 21:04:49;;;;;;;1.48;1.20;;;18.50;75.30;;;;;;4942256;29;20039;-91
2022/05/10 21:10:52;;;;;;;2.13;1.15;;;18.40;75.70;;;;;;4942868;29;20050;-90
2022/05/10 21:13:30;;;;;;;1.77;1.10;;;18.40;76.00;;;;;;4937937;29;20091;-90
2022/05/10 21:16:17;;;;;;;;;;;;;;;;;;;;;
2022/05/10 21:19:00;;;;;;;2.97;1.20;;;18.30;76.20;;;;;;4923426;29;20482;-90
2022/05/10 21:21:35;;;;;;;1.75;1.10;;;18.30;76.00;;;;;;4906041;29;20035;-91
2022/05/10 21:24:04;;;;;;;2.50;1.17;;;18.30;76.00;;;;;;4921230;29;20032;-92
2022/05/10 21:32:19;;;;;;;1.75;1.35;;;18.30;76.50;;;;;;4924480;29;20146;-91
2022/05/10 21:35:15;;;;;;;3.33;1.20;;;18.20;76.40;;;;;;4906449;29;20480;-91
2022/05/10 21:37:48;;;;;;;2.35;1.60;;;18.20;76.70;;;;;;4929293;29;20033;-91
2022/05/10 21:43:15;;;;;;;2.30;1.60;;;18.20;76.80;;;;;;4932632;29;20039;-92
2022/05/10 21:46:12;;;;;;;4.70;1.77;;;18.20;77.20;;;;;;4936575;29;20090;-92
2022/05/10 21:48:48;;;;;;;4.35;1.60;;;18.10;77.40;;;;;;4929204;29;20060;-91
2022/05/10 21:52:00;;;;;;;;;;;;;;;;;;;;;
2022/05/10 21:54:53;;;;;;;3.08;1.40;;;18.20;77.60;;;;;;4951199;29;20370;-91
2022/05/10 21:57:28;;;;;;;2.10;1.27;;;18.20;77.60;;;;;;4955450;29;20044;-92
2022/05/10 22:00:28;;;;;;;;;;;;;;;;;;;;;
2022/05/10 22:03:24;;;;;;;;;;;;;;;;;;;;;
2022/05/10 22:05:58;;;;;;;1.63;1.10;;;18.10;77.90;;;;;;4960531;29;20031;-89
2022/05/10 22:08:52;;;;;;;;;;;;;;;;;;;;;
2022/05/10 22:11:33;;;;;;;2.33;1.50;;;18.10;78.20;;;;;;4941275;29;20038;-91
2022/05/10 22:14:27;;;;;;;;;;;;;;;;;;;;;
2022/05/10 22:17:09;;;;;;;2.95;1.33;;;18.10;78.80;;;;;;4941115;29;20376;-91
2022/05/10 22:19:45;;;;;;;2.47;1.52;;;18.10;78.80;;;;;;4922405;29;20040;-90
2022/05/10 22:22:21;;;;;;;3.20;1.33;;;18.10;78.70;;;;;;4891017;29;20127;-91
2022/05/10 22:25:00;;;;;;;2.40;1.40;;;18.10;78.70;;;;;;4890422;29;20548;-90
2022/05/10 22:27:36;;;;;;;3.40;1.50;;;18.10;78.90;;;;;;4905299;29;20036;-91
2022/05/10 22:30:32;;;;;;;2.03;1.48;;;18.10;78.90;;;;;;4906076;29;20449;-91
2022/05/10 22:33:18;;;;;;;1.60;1.20;;;18.20;79.10;;;;;;4901630;29;20040;-90
2022/05/10 22:35:59;;;;;;;;;;;;;;;;;;;;;
2022/05/10 22:38:38;;;;;;;1.48;1.10;;;18.10;79.10;;;;;;4915877;29;20051;-92
2022/05/10 22:41:16;;;;;;;;;;;;;;;;;;;;;
2022/05/10 22:44:05;;;;;;;;;;;;;;;;;;;;;
2022/05/10 22:47:05;;;;;;;;;;;;;;;;;;;;;
2022/05/10 22:49:51;;;;;;;2.05;1.27;;;18.10;79.50;;;;;;4913326;29;20119;-91
2022/05/10 22:52:49;;;;;;;2.20;1.20;;;18.10;79.50;;;;;;4890477;29;20099;-91
2022/05/10 22:55:44;;;;;;;1.33;1.08;;;18.10;79.50;;;;;;4878889;29;20043;-92
2022/05/10 22:58:25;;;;;;;;;;;;;;;;;;;;;
2022/05/10 23:01:21;;;;;;;3.63;1.25;;;18.10;79.50;;;;;;4888902;29;20115;-92
2022/05/10 23:03:52;;;;;;;1.80;1.00;;;18.00;80.00;;;;;;4886612;29;20020;-91
2022/05/10 23:06:47;;;;;;;2.80;0.90;;;18.00;79.90;;;;;;4881132;29;20118;-91
2022/05/10 23:09:36;;;;;;;1.77;1.17;;;18.00;80.10;;;;;;4928832;29;20043;-91
2022/05/10 23:12:05;;;;;;;2.45;1.48;;;18.00;80.20;;;;;;4928645;29;20035;-92
2022/05/10 23:15:04;;;;;;;1.55;1.05;;;18.00;80.30;;;;;;4935325;29;20027;-92
2022/05/10 23:18:08;;;;;;;;;;;;;;;;;;;;;
2022/05/10 23:20:44;;;;;;;2.00;1.20;;;17.90;81.30;;;;;;4969429;28;20110;-90
2022/05/10 23:23:21;;;;;;;1.90;1.33;;;17.90;81.60;;;;;;4966667;28;20030;-91
2022/05/10 23:26:16;;;;;;;;;;;;;;;;;;;;;
2022/05/10 23:29:00;;;;;;;;;;;;;;;;;;;;;
2022/05/10 23:31:32;;;;;;;1.88;1.25;;;17.80;82.40;;;;;;4938975;29;20114;-90
2022/05/10 23:37:25;;;;;;;;;;;;;;;;;;;;;
2022/05/10 23:49:22;;;;;;;1.70;1.20;;;17.70;83.50;;;;;;4959090;29;20039;-92
2022/05/10 23:52:47;;;;;;;3.60;1.45;;;17.60;83.60;;;;;;4942833;29;20027;-90
2022/05/10 23:55:26;;;;;;;3.67;1.50;;;17.60;84.10;;;;;;4928088;28;20095;-92
2022/05/10 23:57:55;;;;;;;2.08;1.30;;;17.60;84.30;;;;;;4961713;28;20387;-91
